Time;durP1;ratioP1;P1;durP2;ratioP2;P2;SDS_P1;SDS_P2;PMS_P1;PMS_P2;Temp;Humidity;BMP_temperature;BMP_pressure;BME280_temperature;BME280_humidity;BME280_pressure;Samples;Min_cycle;Max_cycle;Signal;HPM_P1;HPM_P2
2023/03/28 00:01:05;;;;;;;19.93;8.90;;;4.90;99.90;;;;;;5035535;28;20669;-77
2023/03/28 00:03:38;;;;;;;18.97;9.40;;;4.90;99.90;;;;;;5034205;28;20169;-77
2023/03/28 00:06:15;;;;;;;28.27;16.13;;;5.00;99.90;;;;;;5036072;28;20156;-79
2023/03/28 00:08:41;;;;;;;23.50;13.90;;;5.00;99.90;;;;;;5035865;28;20158;-79
2023/03/28 00:11:17;;;;;;;15.33;6.67;;;5.00;99.90;;;;;;5034319;28;20635;-79
2023/03/28 00:13:44;;;;;;;15.77;7.33;;;4.90;99.90;;;;;;5035267;28;20195;-77
2023/03/28 00:16:12;;;;;;;12.53;4.83;;;5.00;99.90;;;;;;5035054;28;20176;-78
2023/03/28 00:18:39;;;;;;;12.13;6.83;;;5.00;99.90;;;;;;5034064;28;20603;-78
2023/03/28 00:21:28;;;;;;;13.13;8.40;;;5.00;99.90;;;;;;5033884;28;20661;-78
2023/03/28 00:23:55;;;;;;;11.17;3.90;;;5.00;99.90;;;;;;5033790;28;20207;-78
2023/03/28 00:26:23;;;;;;;9.83;4.10;;;5.00;99.90;;;;;;5033916;28;20165;-78
2023/03/28 00:28:50;;;;;;;12.70;4.10;;;5.00;99.90;;;;;;5033788;28;20169;-78
2023/03/28 00:31:17;;;;;;;10.60;4.13;;;5.00;99.90;;;;;;5034802;28;20614;-77
2023/03/28 00:33:46;;;;;;;9.30;4.40;;;5.00;99.90;;;;;;5033591;28;20168;-77
2023/03/28 00:36:21;;;;;;;7.33;3.90;;;4.90;99.90;;;;;;5033283;28;20168;-78
2023/03/28 00:38:49;;;;;;;9.30;4.13;;;5.00;99.90;;;;;;5034737;28;20154;-76
2023/03/28 00:41:17;;;;;;;11.40;4.03;;;4.90;99.90;;;;;;5034511;28;20182;-77
2023/03/28 00:43:45;;;;;;;9.73;4.37;;;4.80;99.90;;;;;;5033401;28;20226;-78
2023/03/28 00:46:20;;;;;;;9.37;4.03;;;4.90;99.90;;;;;;5034632;28;20162;-79
2023/03/28 00:48:52;;;;;;;12.70;4.20;;;4.90;99.90;;;;;;5033318;28;20164;-77
2023/03/28 00:51:26;;;;;;;14.83;4.27;;;4.80;99.90;;;;;;5032988;28;20276;-77
2023/03/28 00:53:56;;;;;;;16.57;7.17;;;4.80;99.90;;;;;;5033065;28;20662;-77
2023/03/28 00:56:24;;;;;;;17.00;8.73;;;4.80;99.90;;;;;;5032970;28;20181;-76
2023/03/28 00:58:52;;;;;;;11.43;6.10;;;4.80;99.90;;;;;;5033362;28;20179;-78
2023/03/28 01:01:19;;;;;;;18.23;9.37;;;4.80;99.90;;;;;;5033111;28;20349;-76
2023/03/28 01:03:55;;;;;;;13.23;5.97;;;4.70;99.90;;;;;;5033261;28;20210;-78
2023/03/28 01:06:23;;;;;;;12.57;5.10;;;4.70;99.90;;;;;;5032772;28;20172;-78
2023/03/28 01:08:49;;;;;;;10.70;4.70;;;4.80;99.90;;;;;;5032927;28;20586;-78
2023/03/28 01:11:17;;;;;;;11.80;4.70;;;4.90;99.90;;;;;;5033952;28;20173;-77
2023/03/28 01:13:47;;;;;;;9.87;4.63;;;4.80;99.90;;;;;;5032753;28;20205;-77
2023/03/28 01:16:17;;;;;;;11.97;5.63;;;4.70;99.90;;;;;;5032694;28;20160;-77
2023/03/28 01:18:50;;;;;;;13.03;5.60;;;4.70;99.90;;;;;;5034045;28;20259;-77
2023/03/28 01:21:41;;;;;;;11.60;5.60;;;4.70;99.90;;;;;;5032510;28;20669;-77
2023/03/28 01:24:16;;;;;;;10.03;4.30;;;4.80;99.90;;;;;;5032757;28;20248;-77
2023/03/28 01:27:21;;;;;;;10.37;4.47;;;4.70;99.90;;;;;;5033766;28;20207;-77
2023/03/28 01:30:16;;;;;;;11.07;5.13;;;4.70;99.90;;;;;;5028569;28;20187;-78
2023/03/28 01:32:47;;;;;;;16.47;6.73;;;5.00;99.90;;;;;;5032491;28;20165;-77
2023/03/28 01:35:13;;;;;;;11.93;4.43;;;5.10;99.90;;;;;;5032414;28;20184;-77
2023/03/28 01:38:08;;;;;;;13.60;5.50;;;5.20;99.90;;;;;;5032339;28;20188;-78
2023/03/28 01:40:34;;;;;;;10.40;4.13;;;5.40;99.90;;;;;;5032504;28;20180;-79
2023/03/28 01:43:18;;;;;;;9.33;3.53;;;5.20;99.90;;;;;;5032539;28;20185;-77
2023/03/28 01:45:56;;;;;;;8.83;3.90;;;5.00;99.90;;;;;;5032298;28;20174;-77
2023/03/28 01:49:06;;;;;;;12.60;4.83;;;4.70;99.90;;;;;;5031972;28;20169;-78
2023/03/28 01:51:52;;;;;;;11.43;3.63;;;4.50;99.90;;;;;;4991924;28;20182;-78
2023/03/28 01:54:18;;;;;;;11.27;3.77;;;4.50;99.90;;;;;;4991958;28;20193;-78
2023/03/28 01:56:47;;;;;;;10.00;4.20;;;4.50;99.90;;;;;;5016250;28;20650;-77
2023/03/28 01:59:35;;;;;;;8.63;4.10;;;4.40;99.90;;;;;;5032014;28;20633;-78
2023/03/28 02:02:13;;;;;;;8.83;4.40;;;4.50;99.90;;;;;;5033272;28;20635;-78
2023/03/28 02:04:44;;;;;;;9.93;4.40;;;4.50;99.90;;;;;;5033361;28;20165;-77
2023/03/28 02:07:11;;;;;;;6.63;3.80;;;4.50;99.90;;;;;;5031834;28;20256;-77
2023/03/28 02:09:41;;;;;;;6.17;3.27;;;4.40;99.90;;;;;;5031573;28;20161;-77
2023/03/28 02:12:20;;;;;;;9.80;3.77;;;4.40;99.90;;;;;;5032991;28;20176;-76
2023/03/28 02:14:47;;;;;;;9.87;3.50;;;4.40;99.90;;;;;;5033161;28;20160;-76
2023/03/28 02:17:15;;;;;;;8.97;3.17;;;4.50;99.90;;;;;;5033153;28;20173;-77
2023/03/28 02:19:57;;;;;;;6.83;2.80;;;4.40;99.90;;;;;;5033002;28;20177;-77
2023/03/28 02:22:37;;;;;;;8.23;3.23;;;4.40;99.90;;;;;;5031429;28;20210;-77
2023/03/28 02:25:04;;;;;;;8.40;3.63;;;4.40;99.90;;;;;;5031515;28;20649;-77
2023/03/28 02:27:32;;;;;;;9.13;3.53;;;4.40;99.90;;;;;;5031562;28;20168;-77
2023/03/28 02:29:59;;;;;;;13.43;3.73;;;4.50;99.90;;;;;;5033053;28;20661;-77
2023/03/28 02:32:26;;;;;;;9.97;2.97;;;4.50;99.90;;;;;;5032880;28;20177;-77
2023/03/28 02:34:53;;;;;;;9.77;3.07;;;4.40;99.90;;;;;;5032863;28;20638;-77
2023/03/28 02:37:53;;;;;;;8.47;3.03;;;4.40;99.90;;;;;;5032639;28;20168;-77
2023/03/28 02:40:34;;;;;;;5.67;2.80;;;4.40;99.90;;;;;;5013656;28;20188;-77
2023/03/28 02:43:18;;;;;;;7.67;3.00;;;4.40;99.90;;;;;;5031431;28;20198;-76
2023/03/28 02:45:59;;;;;;;9.13;3.37;;;4.30;99.90;;;;;;5032760;28;20157;-78
2023/03/28 02:48:46;;;;;;;7.07;3.40;;;4.40;99.90;;;;;;5031030;28;20168;-77
2023/03/28 02:51:39;;;;;;;9.20;3.50;;;4.10;99.90;;;;;;5031375;28;20219;-77
2023/03/28 02:54:22;;;;;;;7.10;3.50;;;4.30;99.90;;;;;;5031151;28;20242;-77
2023/03/28 02:57:00;;;;;;;11.17;4.03;;;4.30;99.90;;;;;;5032349;28;20172;-78
2023/03/28 02:59:29;;;;;;;13.50;5.27;;;4.40;99.90;;;;;;5031128;28;20525;-77
2023/03/28 03:01:56;;;;;;;16.57;7.20;;;4.40;99.90;;;;;;5032462;28;20192;-77
2023/03/28 03:04:21;;;;;;;12.03;5.10;;;4.30;99.90;;;;;;5032556;28;20169;-77
2023/03/28 03:06:47;;;;;;;12.10;5.53;;;4.30;99.90;;;;;;5032325;28;20169;-77
2023/03/28 03:09:13;;;;;;;13.80;4.67;;;4.40;99.90;;;;;;5031303;28;20223;-77
2023/03/28 03:11:39;;;;;;;6.43;3.83;;;4.50;99.90;;;;;;5032414;28;20165;-77
2023/03/28 03:14:04;;;;;;;8.33;3.10;;;4.50;99.90;;;;;;5031068;28;20175;-77
2023/03/28 03:16:30;;;;;;;9.17;4.43;;;4.40;99.90;;;;;;5031378;28;20216;-77
2023/03/28 03:18:56;;;;;;;14.00;4.53;;;4.30;99.90;;;;;;5031098;28;20199;-77
2023/03/28 03:21:22;;;;;;;11.70;3.47;;;4.40;99.90;;;;;;5032482;28;20650;-77
2023/03/28 03:23:49;;;;;;;10.70;4.30;;;4.80;99.90;;;;;;5036665;28;20173;-77
2023/03/28 03:26:15;;;;;;;11.47;3.10;;;4.70;99.90;;;;;;5034670;28;20519;-76
2023/03/28 03:28:43;;;;;;;11.33;3.30;;;4.60;99.90;;;;;;5034608;28;20522;-77
2023/03/28 03:31:09;;;;;;;9.63;4.07;;;4.70;99.90;;;;;;5035720;28;20236;-77
2023/03/28 03:33:36;;;;;;;11.43;3.60;;;4.70;99.90;;;;;;5036208;28;20200;-77
2023/03/28 03:36:03;;;;;;;7.43;3.23;;;4.70;99.90;;;;;;5034806;28;20183;-76
2023/03/28 03:38:29;;;;;;;10.50;4.10;;;4.50;99.90;;;;;;5036227;28;20197;-77
2023/03/28 03:40:55;;;;;;;6.57;3.80;;;4.40;99.90;;;;;;5034497;28;20665;-78
2023/03/28 03:43:21;;;;;;;8.20;3.50;;;4.30;99.90;;;;;;5034648;28;20161;-77
2023/03/28 03:45:47;;;;;;;7.83;3.57;;;4.50;99.90;;;;;;5034595;28;20322;-77
2023/03/28 03:48:13;;;;;;;8.70;3.87;;;4.60;99.90;;;;;;5034744;28;20248;-77
2023/03/28 03:50:39;;;;;;;8.83;3.07;;;4.50;99.90;;;;;;5035839;28;20188;-77
2023/03/28 03:53:04;;;;;;;9.70;2.87;;;4.40;99.90;;;;;;5035740;28;20239;-77
2023/03/28 03:55:31;;;;;;;6.57;2.80;;;4.20;99.90;;;;;;5034436;28;20181;-78
2023/03/28 03:57:58;;;;;;;14.37;3.83;;;4.20;99.90;;;;;;5034476;28;20213;-76
2023/03/28 04:00:24;;;;;;;9.07;3.10;;;4.30;99.90;;;;;;5033839;28;20169;-78
2023/03/28 04:02:52;;;;;;;6.97;3.00;;;4.10;99.90;;;;;;5035426;28;20178;-77
2023/03/28 04:05:18;;;;;;;12.27;3.60;;;4.00;99.90;;;;;;5035396;28;20247;-77
2023/03/28 04:07:43;;;;;;;10.13;3.27;;;3.90;99.90;;;;;;5034036;28;20203;-78
2023/03/28 04:10:11;;;;;;;9.60;3.77;;;4.00;99.90;;;;;;5035277;28;20198;-77
2023/03/28 04:12:37;;;;;;;7.67;2.93;;;3.80;99.90;;;;;;5034067;28;20606;-77
2023/03/28 04:15:05;;;;;;;12.00;3.77;;;3.70;99.90;;;;;;5034098;28;20207;-78
2023/03/28 04:17:33;;;;;;;8.60;3.30;;;3.60;99.90;;;;;;5033965;28;20577;-77
2023/03/28 04:20:01;;;;;;;8.50;3.50;;;3.50;99.90;;;;;;5033745;28;20636;-77
2023/03/28 04:22:29;;;;;;;9.97;3.03;;;3.40;99.90;;;;;;5033827;28;20204;-79
2023/03/28 04:25:00;;;;;;;8.33;3.20;;;3.40;99.90;;;;;;5034951;28;20623;-78
2023/03/28 04:27:30;;;;;;;8.70;3.47;;;3.30;99.90;;;;;;5034313;28;20222;-78
2023/03/28 04:29:56;;;;;;;10.77;3.10;;;3.30;99.90;;;;;;5034333;28;20176;-79
2023/03/28 04:32:23;;;;;;;6.83;3.03;;;3.30;99.90;;;;;;5033874;28;20585;-78
2023/03/28 04:34:52;;;;;;;10.33;4.10;;;3.20;99.90;;;;;;5034074;28;20196;-78
2023/03/28 04:37:18;;;;;;;9.87;3.67;;;3.20;99.90;;;;;;5035073;28;20180;-78
2023/03/28 04:39:46;;;;;;;9.23;3.00;;;3.20;99.90;;;;;;5033798;28;20192;-78
2023/03/28 04:42:15;;;;;;;8.00;4.03;;;3.20;99.90;;;;;;5033568;28;20207;-78
2023/03/28 04:44:41;;;;;;;5.63;3.20;;;3.20;99.90;;;;;;5035017;28;20634;-77
2023/03/28 04:47:10;;;;;;;9.50;3.07;;;3.10;99.90;;;;;;5034974;28;20161;-80
2023/03/28 04:49:37;;;;;;;6.83;2.87;;;3.10;99.90;;;;;;5035291;28;20165;-80
2023/03/28 04:52:06;;;;;;;8.43;3.40;;;3.00;99.90;;;;;;5035353;28;20174;-79
2023/03/28 04:54:34;;;;;;;14.00;3.90;;;2.90;99.90;;;;;;5033897;28;20665;-79
2023/03/28 04:57:01;;;;;;;7.53;3.17;;;3.00;99.90;;;;;;5034535;28;20626;-78
2023/03/28 04:59:26;;;;;;;8.60;3.60;;;3.00;99.90;;;;;;5033494;28;20633;-79
2023/03/28 05:01:52;;;;;;;13.37;3.57;;;2.90;99.90;;;;;;5034501;28;20211;-78
2023/03/28 05:04:19;;;;;;;7.27;3.37;;;2.90;99.90;;;;;;5034825;28;20155;-77
2023/03/28 05:06:48;;;;;;;7.70;3.40;;;2.80;99.90;;;;;;5033215;28;20165;-80
2023/03/28 05:09:16;;;;;;;6.33;3.70;;;2.80;99.90;;;;;;5034374;28;20195;-78
2023/03/28 05:11:43;;;;;;;12.03;3.67;;;2.80;99.90;;;;;;5033074;28;20173;-79
2023/03/28 05:14:09;;;;;;;9.73;3.70;;;2.80;99.90;;;;;;5033743;28;20664;-79
2023/03/28 05:16:34;;;;;;;11.37;3.57;;;2.80;99.90;;;;;;5033049;28;20177;-79
2023/03/28 05:19:01;;;;;;;6.27;3.50;;;2.80;99.90;;;;;;5033151;28;20634;-80
2023/03/28 05:21:27;;;;;;;6.70;3.47;;;2.90;99.90;;;;;;5033811;28;20184;-79
2023/03/28 05:23:59;;;;;;;9.33;3.60;;;2.90;99.90;;;;;;5050312;28;20628;-79
2023/03/28 05:26:26;;;;;;;11.37;3.27;;;2.90;99.90;;;;;;5072604;28;20167;-78
2023/03/28 05:28:53;;;;;;;10.70;3.20;;;3.10;99.90;;;;;;5072780;28;20167;-79
2023/03/28 05:31:20;;;;;;;8.07;2.30;;;3.20;99.90;;;;;;5072806;28;20182;-79
2023/03/28 05:33:46;;;;;;;9.50;3.07;;;3.30;99.90;;;;;;5073804;28;20164;-80
2023/03/28 05:36:12;;;;;;;6.10;3.00;;;3.30;99.90;;;;;;5072531;28;20225;-78
2023/03/28 05:38:38;;;;;;;13.47;4.37;;;3.40;99.90;;;;;;5073605;28;20216;-80
2023/03/28 05:41:16;;;;;;;10.03;3.77;;;3.50;99.90;;;;;;5073184;28;20277;-80
2023/03/28 05:43:43;;;;;;;12.10;3.43;;;3.60;99.90;;;;;;5072555;28;20182;-79
2023/03/28 05:46:10;;;;;;;10.33;3.10;;;3.70;99.90;;;;;;5072960;28;20245;-78
2023/03/28 05:48:36;;;;;;;11.13;3.60;;;3.80;99.90;;;;;;5058952;28;21354;-79
2023/03/28 05:51:03;;;;;;;10.67;3.60;;;3.90;99.90;;;;;;5060346;28;20631;-79
2023/03/28 05:53:29;;;;;;;10.50;3.83;;;4.00;99.90;;;;;;5066570;28;20195;-79
2023/03/28 05:55:58;;;;;;;13.53;3.97;;;4.10;99.90;;;;;;5059420;28;20187;-80
2023/03/28 05:58:26;;;;;;;7.37;2.93;;;4.30;99.90;;;;;;5063079;28;20199;-79
2023/03/28 06:00:52;;;;;;;10.20;3.03;;;4.30;99.90;;;;;;5059284;28;20203;-79
2023/03/28 06:03:30;;;;;;;13.23;3.27;;;4.30;99.90;;;;;;5069526;28;20182;-80
2023/03/28 06:05:56;;;;;;;8.87;2.97;;;4.30;99.90;;;;;;5067670;28;20172;-80
2023/03/28 06:08:26;;;;;;;13.93;3.17;;;4.30;99.90;;;;;;5058112;28;20629;-78
2023/03/28 06:10:52;;;;;;;11.40;4.23;;;4.40;99.90;;;;;;5062574;28;20164;-79
2023/03/28 06:13:21;;;;;;;5.83;2.97;;;4.50;99.90;;;;;;5064392;28;20656;-80
2023/03/28 06:15:48;;;;;;;14.90;3.40;;;4.60;99.90;;;;;;5066301;28;20169;-78
2023/03/28 06:18:21;;;;;;;10.87;3.43;;;4.70;99.90;;;;;;5061814;28;20205;-79
2023/03/28 06:20:50;;;;;;;12.27;3.77;;;4.70;99.90;;;;;;5069690;28;20164;-78
2023/03/28 06:23:25;;;;;;;10.00;3.90;;;4.80;99.90;;;;;;5063945;28;20181;-80
2023/03/28 06:25:50;;;;;;;8.70;3.63;;;5.00;99.90;;;;;;5065018;28;20178;-81
2023/03/28 06:28:17;;;;;;;13.13;3.10;;;5.00;99.90;;;;;;5061100;28;20207;-81
2023/03/28 06:30:49;;;;;;;5.73;3.00;;;5.00;99.90;;;;;;5056740;28;20175;-80
2023/03/28 06:33:17;;;;;;;10.27;3.27;;;5.10;99.90;;;;;;5059839;28;20190;-78
2023/03/28 06:35:48;;;;;;;10.93;3.00;;;5.20;99.90;;;;;;5059244;28;20177;-78
2023/03/28 06:38:15;;;;;;;10.23;2.97;;;5.30;99.90;;;;;;5062983;28;20169;-80
2023/03/28 06:40:44;;;;;;;11.27;2.93;;;5.10;99.90;;;;;;5064974;28;20528;-78
2023/03/28 06:43:30;;;;;;;11.83;2.77;;;5.10;99.90;;;;;;5053843;28;20487;-81
2023/03/28 06:46:02;;;;;;;10.43;2.57;;;5.20;99.90;;;;;;5061954;28;20664;-79
2023/03/28 06:48:38;;;;;;;7.77;2.10;;;5.30;99.90;;;;;;5056098;28;20156;-79
2023/03/28 06:51:33;;;;;;;7.20;2.30;;;5.40;99.90;;;;;;5058349;28;20177;-79
2023/03/28 06:53:59;;;;;;;9.27;2.70;;;5.60;99.90;;;;;;5054411;28;20269;-79
2023/03/28 06:56:26;;;;;;;5.23;2.13;;;5.60;99.90;;;;;;5064802;28;20195;-79
2023/03/28 06:58:54;;;;;;;9.33;2.30;;;5.60;99.90;;;;;;5064635;28;20170;-79
2023/03/28 07:01:25;;;;;;;6.20;2.27;;;5.70;99.90;;;;;;5076881;28;20266;-79
2023/03/28 07:03:54;;;;;;;13.30;2.73;;;5.90;99.90;;;;;;5078184;28;20169;-78
2023/03/28 07:06:24;;;;;;;10.90;2.43;;;6.00;99.90;;;;;;5077533;28;20164;-78
2023/03/28 07:08:53;;;;;;;8.27;2.33;;;6.00;99.90;;;;;;5077055;28;20199;-79
2023/03/28 07:11:18;;;;;;;8.57;2.20;;;6.00;99.90;;;;;;5077200;28;20195;-79
2023/03/28 07:13:44;;;;;;;8.77;2.93;;;6.10;99.90;;;;;;5075551;28;20177;-79
2023/03/28 07:16:12;;;;;;;8.13;2.57;;;6.30;99.90;;;;;;5074917;28;20176;-78
2023/03/28 07:18:40;;;;;;;9.77;2.37;;;6.30;99.90;;;;;;5075221;28;20198;-79
2023/03/28 07:21:11;;;;;;;7.77;2.40;;;6.10;99.90;;;;;;5076857;28;20185;-79
2023/03/28 07:23:38;;;;;;;6.13;2.33;;;6.10;99.90;;;;;;5076083;28;20178;-79
2023/03/28 07:26:08;;;;;;;9.23;2.50;;;6.40;99.90;;;;;;5075329;28;20194;-74
2023/03/28 07:28:35;;;;;;;5.43;1.87;;;6.40;99.90;;;;;;5075429;28;20174;-78
2023/03/28 07:31:03;;;;;;;8.20;2.00;;;6.50;99.90;;;;;;5076611;28;20240;-79
2023/03/28 07:33:29;;;;;;;5.90;1.90;;;6.60;99.90;;;;;;5076677;28;20175;-79
2023/03/28 07:35:55;;;;;;;5.00;1.97;;;6.70;99.90;;;;;;5074842;28;20591;-79
2023/03/28 07:38:21;;;;;;;6.37;2.30;;;6.60;99.90;;;;;;5075281;28;20256;-80
2023/03/28 07:40:46;;;;;;;5.90;2.10;;;6.60;99.90;;;;;;5076584;28;20157;-79
2023/03/28 07:43:12;;;;;;;7.83;2.20;;;6.60;99.90;;;;;;5076287;28;20165;-79
2023/03/28 07:45:38;;;;;;;10.10;2.50;;;6.70;99.90;;;;;;5076641;28;20171;-78
2023/03/28 07:48:04;;;;;;;7.57;2.47;;;6.80;99.90;;;;;;5074698;28;20598;-78
2023/03/28 07:50:30;;;;;;;7.17;1.90;;;7.10;99.90;;;;;;5075118;28;20167;-78
2023/03/28 07:52:58;;;;;;;8.13;2.00;;;7.20;99.90;;;;;;5074395;28;20686;-78
2023/03/28 07:55:25;;;;;;;13.03;2.03;;;7.20;99.90;;;;;;5075330;28;20315;-78
2023/03/28 07:57:51;;;;;;;9.13;1.93;;;7.40;99.90;;;;;;5074126;28;20712;-78
2023/03/28 08:00:17;;;;;;;4.90;1.90;;;7.40;99.90;;;;;;5074413;28;20284;-78
2023/03/28 08:02:42;;;;;;;4.47;1.93;;;7.30;99.90;;;;;;5075549;28;20707;-78
2023/03/28 08:05:09;;;;;;;8.73;2.20;;;7.30;99.90;;;;;;5074116;28;20174;-78
2023/03/28 08:07:35;;;;;;;9.17;2.67;;;7.50;99.90;;;;;;5074173;28;20171;-80
2023/03/28 08:10:01;;;;;;;4.47;2.03;;;7.60;99.90;;;;;;5075278;28;20158;-78
2023/03/28 08:12:28;;;;;;;6.17;1.60;;;7.70;99.90;;;;;;5075870;28;20190;-79
2023/03/28 08:14:54;;;;;;;11.47;3.53;;;7.80;99.90;;;;;;5075647;28;20171;-79
2023/03/28 08:17:20;;;;;;;7.17;2.70;;;7.60;99.90;;;;;;5074964;28;20167;-79
2023/03/28 08:19:46;;;;;;;12.17;3.90;;;7.60;99.90;;;;;;5075353;28;20234;-79
2023/03/28 08:22:11;;;;;;;8.00;2.90;;;7.60;99.90;;;;;;5075252;28;20266;-79
2023/03/28 08:24:39;;;;;;;6.60;3.27;;;7.80;99.90;;;;;;5074136;28;20164;-79
2023/03/28 08:27:04;;;;;;;7.50;2.70;;;8.10;99.90;;;;;;5074743;28;20178;-78
2023/03/28 08:29:30;;;;;;;11.70;2.93;;;8.10;99.90;;;;;;5075475;28;20151;-78
2023/03/28 08:31:56;;;;;;;9.83;3.03;;;7.80;99.90;;;;;;5074647;28;20167;-78
2023/03/28 08:34:22;;;;;;;6.87;3.10;;;7.50;99.90;;;;;;5075336;28;20527;-78
2023/03/28 08:36:48;;;;;;;9.67;2.53;;;7.50;99.90;;;;;;5075652;28;20152;-78
2023/03/28 08:39:14;;;;;;;13.97;2.87;;;7.30;99.90;;;;;;5075539;28;20182;-78
2023/03/28 08:41:50;;;;;;;7.70;2.93;;;7.10;99.90;;;;;;5074397;28;20668;-79
2023/03/28 08:44:35;;;;;;;6.77;2.37;;;7.40;99.90;;;;;;5075670;28;20576;-79
2023/03/28 08:47:08;;;;;;;8.60;2.80;;;7.30;99.90;;;;;;5075336;28;20139;-79
2023/03/28 08:50:00;;;;;;;7.77;2.77;;;7.30;99.90;;;;;;5075344;28;20164;-79
2023/03/28 08:52:27;;;;;;;12.63;3.17;;;7.30;99.90;;;;;;5065128;28;20184;-79
2023/03/28 08:55:20;;;;;;;5.23;2.73;;;7.40;99.90;;;;;;5075554;28;20198;-79
2023/03/28 08:57:49;;;;;;;6.57;3.10;;;7.40;99.90;;;;;;5073098;28;20180;-79
2023/03/28 09:00:32;;;;;;;10.57;3.60;;;7.50;99.90;;;;;;5073501;28;20168;-79
2023/03/28 09:02:58;;;;;;;8.27;2.77;;;7.50;99.90;;;;;;5073380;28;20198;-78
2023/03/28 09:06:04;;;;;;;7.40;2.70;;;7.00;99.90;;;;;;5073555;28;20169;-78
2023/03/28 09:08:37;;;;;;;14.77;3.27;;;7.00;99.90;;;;;;5075237;28;20162;-79
2023/03/28 09:11:17;;;;;;;7.55;3.10;;;7.00;99.90;;;;;;5074559;28;20760;-77
2023/03/28 09:14:04;;;;;;;8.80;2.93;;;7.10;99.90;;;;;;5073311;28;20160;-79
2023/03/28 09:17:07;;;;;;;9.57;2.77;;;7.10;99.90;;;;;;5074413;28;20171;-78
2023/03/28 09:19:51;;;;;;;8.33;2.70;;;7.20;99.90;;;;;;5072395;28;20185;-79
2023/03/28 09:22:30;;;;;;;8.60;2.63;;;7.60;99.90;;;;;;5073836;28;20513;-79
2023/03/28 09:25:07;;;;;;;6.77;2.50;;;7.90;99.90;;;;;;5073088;28;20545;-79
2023/03/28 09:27:42;;;;;;;8.17;3.00;;;8.10;99.90;;;;;;5073996;28;20220;-78
2023/03/28 09:30:31;;;;;;;8.73;2.93;;;7.90;99.90;;;;;;5073116;28;20261;-78
2023/03/28 09:33:02;;;;;;;9.47;2.73;;;8.10;99.90;;;;;;5073942;28;20178;-77
2023/03/28 09:35:30;;;;;;;6.83;2.27;;;8.40;99.90;;;;;;5073794;28;20175;-79
2023/03/28 09:38:01;;;;;;;10.17;2.57;;;8.50;99.90;;;;;;5073841;28;20214;-79
2023/03/28 09:40:32;;;;;;;9.20;2.63;;;8.60;99.90;;;;;;5073844;28;20628;-79
2023/03/28 09:43:32;;;;;;;5.67;2.37;;;8.50;99.90;;;;;;5073441;28;20558;-78
2023/03/28 09:46:04;;;;;;;8.80;2.67;;;8.50;99.90;;;;;;5062295;28;20236;-78
2023/03/28 09:48:37;;;;;;;6.00;2.60;;;8.60;99.90;;;;;;5073800;28;20152;-79
2023/03/28 09:51:05;;;;;;;8.90;2.33;;;8.80;99.90;;;;;;5072839;28;20209;-78
2023/03/28 09:53:34;;;;;;;8.20;2.40;;;9.00;99.90;;;;;;5073499;28;20170;-79
2023/03/28 09:56:34;;;;;;;7.73;2.20;;;9.30;99.90;;;;;;5072088;28;20593;-78
2023/03/28 09:59:02;;;;;;;5.57;2.47;;;9.30;99.90;;;;;;5068342;28;20238;-79
2023/03/28 10:01:59;;;;;;;7.57;2.07;;;9.30;99.90;;;;;;5071965;28;20243;-78
2023/03/28 10:04:29;;;;;;;5.93;1.87;;;9.40;99.90;;;;;;5074120;28;20159;-78
2023/03/28 10:07:18;;;;;;;6.37;2.43;;;9.60;99.90;;;;;;5074019;28;20547;-78
2023/03/28 10:09:53;;;;;;;7.07;2.33;;;9.90;99.90;;;;;;5074133;28;20168;-79
2023/03/28 10:12:47;;;;;;;5.77;2.43;;;10.10;99.70;;;;;;5074126;28;20167;-78
2023/03/28 10:15:38;;;;;;;6.03;1.93;;;10.30;98.10;;;;;;5069248;28;20274;-79
2023/03/28 10:18:04;;;;;;;7.50;2.23;;;10.30;97.90;;;;;;5072082;28;20167;-78
2023/03/28 10:20:35;;;;;;;5.73;1.80;;;10.00;98.70;;;;;;5072155;28;20251;-79
2023/03/28 10:23:04;;;;;;;6.97;2.27;;;9.70;99.10;;;;;;5073262;28;20722;-78
2023/03/28 10:25:41;;;;;;;7.63;2.30;;;10.10;98.70;;;;;;5073554;28;20197;-78
2023/03/28 10:28:14;;;;;;;6.13;1.97;;;10.60;97.40;;;;;;5071715;28;20164;-78
2023/03/28 10:30:41;;;;;;;6.43;2.10;;;10.50;97.20;;;;;;5071370;28;20169;-78
2023/03/28 10:33:07;;;;;;;6.27;2.30;;;10.30;97.70;;;;;;5072138;28;20176;-78
2023/03/28 10:35:33;;;;;;;5.50;1.93;;;10.30;97.40;;;;;;5072106;28;20178;-78
2023/03/28 10:38:03;;;;;;;4.60;1.77;;;10.40;97.60;;;;;;5072623;28;20185;-79
2023/03/28 10:40:31;;;;;;;5.57;1.90;;;10.50;97.10;;;;;;5073560;28;20248;-78
2023/03/28 10:42:57;;;;;;;5.53;1.43;;;10.40;97.40;;;;;;5072185;28;20201;-79
2023/03/28 10:45:39;;;;;;;5.87;1.63;;;10.20;97.80;;;;;;5073109;28;20217;-79
2023/03/28 10:48:15;;;;;;;3.90;1.90;;;10.10;96.80;;;;;;5074131;28;20160;-79
2023/03/28 10:50:43;;;;;;;7.37;2.10;;;10.30;96.90;;;;;;5073454;28;20561;-79
2023/03/28 10:53:23;;;;;;;5.67;1.60;;;10.30;96.80;;;;;;5071912;28;20178;-79
2023/03/28 10:56:14;;;;;;;5.27;1.70;;;10.00;97.80;;;;;;5072925;28;20290;-80
2023/03/28 10:58:50;;;;;;;4.07;1.60;;;10.30;97.80;;;;;;5072716;28;20173;-79
2023/03/28 11:01:19;;;;;;;6.53;2.23;;;10.90;96.50;;;;;;5071043;28;20553;-78
2023/03/28 11:04:04;;;;;;;6.80;1.70;;;11.00;97.00;;;;;;5072376;28;20161;-78
2023/03/28 11:06:57;;;;;;;5.43;1.70;;;11.10;96.40;;;;;;5072943;28;20197;-79
2023/03/28 11:09:39;;;;;;;7.37;1.90;;;11.50;95.60;;;;;;5071354;28;20179;-78
2023/03/28 11:12:42;;;;;;;4.10;1.60;;;11.60;95.40;;;;;;5072975;28;20200;-77
2023/03/28 11:15:22;;;;;;;3.70;1.60;;;11.80;95.30;;;;;;5071448;28;20207;-78
2023/03/28 11:18:18;;;;;;;4.80;2.00;;;11.90;95.30;;;;;;5072587;28;20159;-79
2023/03/28 11:21:11;;;;;;;5.87;1.47;;;12.00;94.70;;;;;;5072399;28;20173;-79
2023/03/28 11:23:44;;;;;;;4.00;1.67;;;11.70;95.40;;;;;;5070995;28;20171;-79
2023/03/28 11:26:24;;;;;;;6.63;2.13;;;11.70;95.70;;;;;;5072586;28;20618;-79
2023/03/28 11:28:55;;;;;;;3.70;1.77;;;11.60;96.00;;;;;;5072069;28;20524;-79
2023/03/28 11:31:32;;;;;;;6.40;1.83;;;11.90;95.90;;;;;;5071156;28;20166;-78
2023/03/28 11:34:17;;;;;;;6.83;2.43;;;12.20;95.50;;;;;;5072485;28;20252;-79
2023/03/28 11:36:52;;;;;;;3.50;1.80;;;12.60;95.20;;;;;;5072676;28;20204;-79
2023/03/28 11:39:50;;;;;;;7.07;2.30;;;12.40;95.00;;;;;;5071068;28;20644;-79
2023/03/28 11:42:42;;;;;;;5.73;1.70;;;12.40;95.50;;;;;;5072107;28;20654;-79
2023/03/28 11:45:10;;;;;;;6.20;1.97;;;12.60;95.40;;;;;;5074458;28;20201;-78
2023/03/28 11:47:52;;;;;;;7.90;1.93;;;12.60;95.20;;;;;;5075731;28;20623;-77
2023/03/28 11:50:23;;;;;;;7.67;2.27;;;13.00;94.50;;;;;;5075732;28;20258;-79
2023/03/28 11:52:56;;;;;;;5.77;1.87;;;13.20;94.50;;;;;;5075674;28;20177;-80
2023/03/28 11:55:31;;;;;;;4.00;1.90;;;13.00;94.40;;;;;;5074110;28;20202;-79
2023/03/28 11:58:23;;;;;;;4.33;1.77;;;13.00;94.70;;;;;;5075414;28;20151;-79
2023/03/28 12:01:09;;;;;;;6.93;2.07;;;13.10;94.60;;;;;;5075389;28;20530;-78
2023/03/28 12:04:04;;;;;;;3.87;1.80;;;13.40;93.90;;;;;;5064520;28;20195;-77
2023/03/28 12:07:06;;;;;;;4.23;1.87;;;13.30;94.40;;;;;;5074494;28;20221;-78
2023/03/28 12:09:37;;;;;;;10.37;2.03;;;13.90;94.00;;;;;;5075747;28;20253;-78
2023/03/28 12:12:26;;;;;;;6.40;2.03;;;14.20;93.40;;;;;;5075369;28;20241;-79
2023/03/28 12:14:55;;;;;;;5.03;1.83;;;14.20;93.30;;;;;;5035407;28;20183;-78
2023/03/28 12:17:39;;;;;;;3.97;1.83;;;14.00;93.70;;;;;;5075312;28;20570;-78
2023/03/28 12:20:15;;;;;;;3.60;1.83;;;14.20;93.80;;;;;;5073729;28;20171;-78
2023/03/28 12:22:51;;;;;;;4.50;1.97;;;15.00;93.00;;;;;;5075221;28;20706;-78
2023/03/28 12:25:23;;;;;;;7.37;2.10;;;15.10;92.00;;;;;;5073706;28;20172;-77
2023/03/28 12:28:13;;;;;;;5.03;1.90;;;15.20;91.90;;;;;;5074759;28;20169;-78
2023/03/28 12:31:02;;;;;;;7.27;2.40;;;14.90;91.70;;;;;;5073390;28;20179;-79
2023/03/28 12:33:51;;;;;;;4.97;2.07;;;14.10;92.20;;;;;;5074272;28;20170;-79
2023/03/28 12:36:32;;;;;;;5.20;2.43;;;14.60;91.90;;;;;;5074251;28;20172;-79
2023/03/28 12:39:11;;;;;;;8.37;2.30;;;14.10;92.40;;;;;;5074293;28;20159;-78
2023/03/28 12:41:39;;;;;;;6.07;2.30;;;13.80;93.00;;;;;;5073981;28;20214;-78
2023/03/28 12:44:12;;;;;;;5.10;2.03;;;14.00;92.70;;;;;;5075742;28;20224;-78
2023/03/28 12:46:46;;;;;;;6.37;2.53;;;13.70;93.20;;;;;;5074847;28;20238;-79
2023/03/28 12:49:28;;;;;;;5.77;2.10;;;13.80;93.10;;;;;;5073289;28;20266;-77
2023/03/28 12:51:58;;;;;;;5.77;1.83;;;13.90;93.30;;;;;;5074186;28;20163;-78
2023/03/28 12:54:27;;;;;;;7.53;2.00;;;13.70;93.60;;;;;;5072545;28;20713;-78
2023/03/28 12:57:11;;;;;;;4.73;1.80;;;13.60;93.80;;;;;;5073907;28;20164;-78
2023/03/28 12:59:39;;;;;;;3.73;1.83;;;13.40;94.50;;;;;;5074887;28;20174;-78
2023/03/28 13:02:25;;;;;;;7.77;1.93;;;13.50;94.10;;;;;;5074382;28;20183;-79
2023/03/28 13:05:19;;;;;;;8.30;2.33;;;13.40;94.30;;;;;;5032704;28;20175;-79
2023/03/28 13:08:02;;;;;;;9.13;2.30;;;13.40;94.30;;;;;;5074156;28;20236;-77
2023/03/28 13:10:58;;;;;;;6.43;2.03;;;13.30;94.50;;;;;;5072717;28;20201;-78
2023/03/28 13:13:27;;;;;;;5.30;2.50;;;13.00;95.00;;;;;;5073261;28;20258;-78
2023/03/28 13:16:03;;;;;;;4.93;1.70;;;12.90;95.30;;;;;;5073183;28;20208;-79
2023/03/28 13:18:32;;;;;;;5.30;1.87;;;13.10;95.20;;;;;;5074353;28;20158;-78
2023/03/28 13:21:00;;;;;;;4.57;1.90;;;13.20;94.80;;;;;;5073812;28;20159;-79